Gove, Northern Territory

11:41 AM ACST on July 29, 2016 (GMT +0930)
Gove | | Change Station

Elev 190 ft 12.27 °S, 136.82 °E | Updated 11 minutes ago

Partly Cloudy
Partly Cloudy
82 °F
Feels Like 85 °F
N
17
Wind Variable Wind from SE

Today
High -- | Low -- °F
--% Chance of Precip.
Yesterday
High -- | Low -- °F
Precip. -- in
Pressure 29.92 in
Visibility 6.2 miles
Clouds Few 3000 ft
Heat Index 85 °F
Dew Point 66 °F
Humidity 58%
Rainfall 0.00 in
Snow Depth Not available.
6:42 AM 6:16 PM
Waning Crescent, 26% visible
METAR YPGV 290200Z 14015KT 9999 FEW030 28/19 Q1013
Pressure 29.92 in
Visibility 6.2 miles
Clouds Few 3000 ft
Heat Index 85 °F
Dew Point 66 °F
Humidity 58%
Rainfall 0.00 in
Snow Depth Not available.
6:42 AM 6:16 PM
Waning Crescent, 26% visible
METAR YPGV 290200Z 14015KT 9999 FEW030 28/19 Q1013

10-Day Weather Forecast

Almanac

Astronomy

Jul. 29, 2016 Rise Set
Actual Time
Civil Twilight
Nautical Twilight
Astronomical Twilight
Moon
Length of Visible Light
Length of Day
Tomorrow will be .
, % of the Moon is Illuminated

Today's Extremes

Country Highs Country Lows

Community

WunderPhotos

Upload Photos

1,928,266 photos uploaded!

WunderBlog® & News

Nearby

Air Quality

  Air Quality AQ Index Pollutant
Not available.

Snow Depth

Station Depth Elevation

Earthquake Activity

City Distance Mag. Time & Date
Minimum magnitude displayed is 2.5.

Coastal Water Temperatures

Place Temperature

Stations

Nearby Weather Stations

Station Location Temp. Windchill Dew Point Humidity Wind Precip. Elev Updated Type